sensor_id;sensor_type;location;lat;lon;timestamp;temperature;humidity
65692;DHT22;52411;52.716;6.696;2023-03-13T00:01:33;9.40;99.90
65692;DHT22;52411;52.716;6.696;2023-03-13T00:03:56;9.40;99.90
65692;DHT22;52411;52.716;6.696;2023-03-13T00:06:25;9.40;99.90
65692;DHT22;52411;52.716;6.696;2023-03-13T00:08:51;9.30;99.90
65692;DHT22;52411;52.716;6.696;2023-03-13T00:11:16;9.40;99.90
65692;DHT22;52411;52.716;6.696;2023-03-13T00:13:43;9.40;99.90
65692;DHT22;52411;52.716;6.696;2023-03-13T00:16:13;9.40;99.90
65692;DHT22;52411;52.716;6.696;2023-03-13T00:18:45;9.40;99.90
65692;DHT22;52411;52.716;6.696;2023-03-13T00:21:11;9.40;99.90
65692;DHT22;52411;52.716;6.696;2023-03-13T00:23:37;9.40;99.90
65692;DHT22;52411;52.716;6.696;2023-03-13T00:26:08;9.40;99.90
65692;DHT22;52411;52.716;6.696;2023-03-13T00:28:35;9.30;99.90
65692;DHT22;52411;52.716;6.696;2023-03-13T00:33:35;9.30;99.90
65692;DHT22;52411;52.716;6.696;2023-03-13T00:36:02;9.30;99.90
65692;DHT22;52411;52.716;6.696;2023-03-13T00:38:29;9.30;99.90
65692;DHT22;52411;52.716;6.696;2023-03-13T00:40:59;9.30;99.90
65692;DHT22;52411;52.716;6.696;2023-03-13T00:43:25;9.30;99.90
65692;DHT22;52411;52.716;6.696;2023-03-13T00:45:50;9.30;99.90
65692;DHT22;52411;52.716;6.696;2023-03-13T00:48:16;9.30;99.90
65692;DHT22;52411;52.716;6.696;2023-03-13T00:50:41;9.30;99.90
65692;DHT22;52411;52.716;6.696;2023-03-13T00:53:07;9.30;99.90
65692;DHT22;52411;52.716;6.696;2023-03-13T00:55:32;9.30;99.90
65692;DHT22;52411;52.716;6.696;2023-03-13T00:57:58;9.20;99.90
65692;DHT22;52411;52.716;6.696;2023-03-13T01:00:23;9.20;99.90
65692;DHT22;52411;52.716;6.696;2023-03-13T01:02:49;9.20;99.90
65692;DHT22;52411;52.716;6.696;2023-03-13T01:05:15;9.20;99.90
65692;DHT22;52411;52.716;6.696;2023-03-13T01:07:40;9.10;99.90
65692;DHT22;52411;52.716;6.696;2023-03-13T01:10:06;9.20;99.90
65692;DHT22;52411;52.716;6.696;2023-03-13T01:12:32;9.20;99.90
65692;DHT22;52411;52.716;6.696;2023-03-13T01:14:57;9.30;99.90
65692;DHT22;52411;52.716;6.696;2023-03-13T01:17:23;9.20;99.90
65692;DHT22;52411;52.716;6.696;2023-03-13T01:19:48;9.20;99.90
65692;DHT22;52411;52.716;6.696;2023-03-13T01:22:14;9.20;99.90
65692;DHT22;52411;52.716;6.696;2023-03-13T01:24:40;9.30;99.90
65692;DHT22;52411;52.716;6.696;2023-03-13T01:27:05;9.30;99.90
65692;DHT22;52411;52.716;6.696;2023-03-13T01:29:31;9.30;99.90
65692;DHT22;52411;52.716;6.696;2023-03-13T01:31:56;9.20;99.90
65692;DHT22;52411;52.716;6.696;2023-03-13T01:34:22;9.20;99.90
65692;DHT22;52411;52.716;6.696;2023-03-13T01:36:47;9.20;99.90
65692;DHT22;52411;52.716;6.696;2023-03-13T01:39:15;9.20;99.90
65692;DHT22;52411;52.716;6.696;2023-03-13T01:41:41;9.20;99.90
65692;DHT22;52411;52.716;6.696;2023-03-13T01:44:21;9.20;99.90
65692;DHT22;52411;52.716;6.696;2023-03-13T01:46:47;9.30;99.90
65692;DHT22;52411;52.716;6.696;2023-03-13T01:49:22;9.30;99.90
65692;DHT22;52411;52.716;6.696;2023-03-13T01:52:04;9.30;99.90
65692;DHT22;52411;52.716;6.696;2023-03-13T01:54:45;9.30;99.90
65692;DHT22;52411;52.716;6.696;2023-03-13T01:57:20;9.30;99.90
65692;DHT22;52411;52.716;6.696;2023-03-13T01:59:57;9.40;99.90
65692;DHT22;52411;52.716;6.696;2023-03-13T02:02:24;9.40;99.90
65692;DHT22;52411;52.716;6.696;2023-03-13T02:04:54;9.40;99.90
65692;DHT22;52411;52.716;6.696;2023-03-13T02:07:35;9.40;99.90
65692;DHT22;52411;52.716;6.696;2023-03-13T02:10:03;9.40;99.90
65692;DHT22;52411;52.716;6.696;2023-03-13T02:12:34;9.30;99.90
65692;DHT22;52411;52.716;6.696;2023-03-13T02:15:14;9.30;99.90
65692;DHT22;52411;52.716;6.696;2023-03-13T02:17:41;9.30;99.90
65692;DHT22;52411;52.716;6.696;2023-03-13T02:20:08;9.20;99.90
65692;DHT22;52411;52.716;6.696;2023-03-13T02:22:42;9.20;99.90
65692;DHT22;52411;52.716;6.696;2023-03-13T02:25:31;9.20;99.90
65692;DHT22;52411;52.716;6.696;2023-03-13T02:28:03;9.20;99.90
65692;DHT22;52411;52.716;6.696;2023-03-13T02:30:30;9.20;99.90
65692;DHT22;52411;52.716;6.696;2023-03-13T02:32:55;9.20;99.90
65692;DHT22;52411;52.716;6.696;2023-03-13T02:35:22;9.20;99.90
65692;DHT22;52411;52.716;6.696;2023-03-13T02:38:01;9.20;99.90
65692;DHT22;52411;52.716;6.696;2023-03-13T02:40:30;9.20;99.90
65692;DHT22;52411;52.716;6.696;2023-03-13T02:43:00;9.30;99.90
65692;DHT22;52411;52.716;6.696;2023-03-13T02:45:25;9.30;99.90
65692;DHT22;52411;52.716;6.696;2023-03-13T02:47:51;9.30;99.90
65692;DHT22;52411;52.716;6.696;2023-03-13T02:50:17;9.30;99.90
65692;DHT22;52411;52.716;6.696;2023-03-13T02:52:45;9.30;99.90
65692;DHT22;52411;52.716;6.696;2023-03-13T02:55:22;9.30;99.90
65692;DHT22;52411;52.716;6.696;2023-03-13T02:57:49;9.40;99.90
65692;DHT22;52411;52.716;6.696;2023-03-13T03:00:15;9.40;99.90
65692;DHT22;52411;52.716;6.696;2023-03-13T03:02:42;9.40;99.90
65692;DHT22;52411;52.716;6.696;2023-03-13T03:05:08;9.40;99.90
65692;DHT22;52411;52.716;6.696;2023-03-13T03:07:34;9.50;99.90
65692;DHT22;52411;52.716;6.696;2023-03-13T03:10:00;9.60;99.90
65692;DHT22;52411;52.716;6.696;2023-03-13T03:12:26;9.50;99.90
65692;DHT22;52411;52.716;6.696;2023-03-13T03:14:51;9.60;99.90
65692;DHT22;52411;52.716;6.696;2023-03-13T03:17:17;9.60;99.90
65692;DHT22;52411;52.716;6.696;2023-03-13T03:19:42;9.70;99.90
65692;DHT22;52411;52.716;6.696;2023-03-13T03:22:08;9.80;99.90
65692;DHT22;52411;52.716;6.696;2023-03-13T03:24:34;9.80;99.90
65692;DHT22;52411;52.716;6.696;2023-03-13T03:26:59;9.80;99.90
65692;DHT22;52411;52.716;6.696;2023-03-13T03:29:25;9.90;99.90
65692;DHT22;52411;52.716;6.696;2023-03-13T03:31:52;9.90;99.90
65692;DHT22;52411;52.716;6.696;2023-03-13T03:34:17;9.90;99.90
65692;DHT22;52411;52.716;6.696;2023-03-13T03:36:43;9.90;99.90
65692;DHT22;52411;52.716;6.696;2023-03-13T03:39:08;10.00;99.90
65692;DHT22;52411;52.716;6.696;2023-03-13T03:41:34;10.00;99.90
65692;DHT22;52411;52.716;6.696;2023-03-13T03:44:02;10.00;99.90
65692;DHT22;52411;52.716;6.696;2023-03-13T03:46:27;10.00;99.90
65692;DHT22;52411;52.716;6.696;2023-03-13T03:48:53;10.10;99.90
65692;DHT22;52411;52.716;6.696;2023-03-13T03:51:19;10.10;99.90
65692;DHT22;52411;52.716;6.696;2023-03-13T03:53:45;10.20;99.90
65692;DHT22;52411;52.716;6.696;2023-03-13T03:56:10;10.20;99.90
65692;DHT22;52411;52.716;6.696;2023-03-13T03:58:36;10.20;99.90
65692;DHT22;52411;52.716;6.696;2023-03-13T04:01:02;10.20;99.90
65692;DHT22;52411;52.716;6.696;2023-03-13T04:03:27;10.20;99.90
65692;DHT22;52411;52.716;6.696;2023-03-13T04:05:53;10.30;99.90
65692;DHT22;52411;52.716;6.696;2023-03-13T04:08:18;10.20;99.90
65692;DHT22;52411;52.716;6.696;2023-03-13T04:10:44;10.30;99.90
65692;DHT22;52411;52.716;6.696;2023-03-13T04:13:10;10.40;99.90
65692;DHT22;52411;52.716;6.696;2023-03-13T04:15:37;10.50;99.90
65692;DHT22;52411;52.716;6.696;2023-03-13T04:18:03;10.50;99.90
65692;DHT22;52411;52.716;6.696;2023-03-13T04:20:29;10.50;99.90
65692;DHT22;52411;52.716;6.696;2023-03-13T04:22:54;10.50;99.90
65692;DHT22;52411;52.716;6.696;2023-03-13T04:25:20;10.60;99.90
65692;DHT22;52411;52.716;6.696;2023-03-13T04:27:46;10.60;99.90
65692;DHT22;52411;52.716;6.696;2023-03-13T04:30:11;10.60;99.90
65692;DHT22;52411;52.716;6.696;2023-03-13T04:32:37;10.70;99.90
65692;DHT22;52411;52.716;6.696;2023-03-13T04:35:03;10.70;99.90
65692;DHT22;52411;52.716;6.696;2023-03-13T04:37:29;10.70;99.90
65692;DHT22;52411;52.716;6.696;2023-03-13T04:39:54;10.70;99.90
65692;DHT22;52411;52.716;6.696;2023-03-13T04:42:20;10.80;99.90
65692;DHT22;52411;52.716;6.696;2023-03-13T04:44:46;10.80;99.90
65692;DHT22;52411;52.716;6.696;2023-03-13T04:47:11;10.80;99.90
65692;DHT22;52411;52.716;6.696;2023-03-13T04:49:37;10.90;99.90
65692;DHT22;52411;52.716;6.696;2023-03-13T04:52:02;10.90;99.90
65692;DHT22;52411;52.716;6.696;2023-03-13T04:54:28;11.00;99.90
65692;DHT22;52411;52.716;6.696;2023-03-13T04:56:53;11.00;99.90
65692;DHT22;52411;52.716;6.696;2023-03-13T04:59:19;11.00;99.90
65692;DHT22;52411;52.716;6.696;2023-03-13T05:01:45;11.00;99.90
65692;DHT22;52411;52.716;6.696;2023-03-13T05:04:11;11.00;99.90
65692;DHT22;52411;52.716;6.696;2023-03-13T05:06:36;11.00;99.90
65692;DHT22;52411;52.716;6.696;2023-03-13T05:09:02;11.10;99.90
65692;DHT22;52411;52.716;6.696;2023-03-13T05:11:28;11.00;99.90
65692;DHT22;52411;52.716;6.696;2023-03-13T05:13:54;11.10;99.90
65692;DHT22;52411;52.716;6.696;2023-03-13T05:16:20;11.20;99.90
65692;DHT22;52411;52.716;6.696;2023-03-13T05:18:45;11.20;99.90
65692;DHT22;52411;52.716;6.696;2023-03-13T05:21:11;11.30;99.90
65692;DHT22;52411;52.716;6.696;2023-03-13T05:23:36;11.40;99.90
65692;DHT22;52411;52.716;6.696;2023-03-13T05:26:02;11.40;99.90
65692;DHT22;52411;52.716;6.696;2023-03-13T05:28:28;11.40;99.90
65692;DHT22;52411;52.716;6.696;2023-03-13T05:30:53;11.40;99.90
65692;DHT22;52411;52.716;6.696;2023-03-13T05:33:19;11.40;99.90
65692;DHT22;52411;52.716;6.696;2023-03-13T05:35:45;11.50;99.90
65692;DHT22;52411;52.716;6.696;2023-03-13T05:38:11;11.50;99.90
65692;DHT22;52411;52.716;6.696;2023-03-13T05:40:37;11.50;99.90
65692;DHT22;52411;52.716;6.696;2023-03-13T05:43:02;11.50;99.90
65692;DHT22;52411;52.716;6.696;2023-03-13T05:45:28;11.70;99.90
65692;DHT22;52411;52.716;6.696;2023-03-13T05:47:54;11.60;99.90
65692;DHT22;52411;52.716;6.696;2023-03-13T05:50:20;11.60;99.90
65692;DHT22;52411;52.716;6.696;2023-03-13T05:52:46;11.70;99.90
65692;DHT22;52411;52.716;6.696;2023-03-13T05:55:12;11.70;99.90
65692;DHT22;52411;52.716;6.696;2023-03-13T05:57:37;11.70;99.90
65692;DHT22;52411;52.716;6.696;2023-03-13T06:00:04;11.70;99.90
65692;DHT22;52411;52.716;6.696;2023-03-13T06:02:30;11.80;99.90
65692;DHT22;52411;52.716;6.696;2023-03-13T06:04:55;11.80;99.90
65692;DHT22;52411;52.716;6.696;2023-03-13T06:07:21;11.80;99.90
65692;DHT22;52411;52.716;6.696;2023-03-13T06:09:46;11.80;99.90
65692;DHT22;52411;52.716;6.696;2023-03-13T06:12:12;11.90;99.90
65692;DHT22;52411;52.716;6.696;2023-03-13T06:14:37;12.00;99.90
65692;DHT22;52411;52.716;6.696;2023-03-13T06:17:04;12.00;99.90
65692;DHT22;52411;52.716;6.696;2023-03-13T06:19:30;12.10;99.90
65692;DHT22;52411;52.716;6.696;2023-03-13T06:21:56;12.10;99.90
65692;DHT22;52411;52.716;6.696;2023-03-13T06:24:21;12.20;99.90
65692;DHT22;52411;52.716;6.696;2023-03-13T06:26:48;12.20;99.90
65692;DHT22;52411;52.716;6.696;2023-03-13T06:29:14;12.30;99.90
65692;DHT22;52411;52.716;6.696;2023-03-13T06:31:39;12.40;99.90
65692;DHT22;52411;52.716;6.696;2023-03-13T06:34:05;12.50;99.90
65692;DHT22;52411;52.716;6.696;2023-03-13T06:36:31;12.60;99.90
65692;DHT22;52411;52.716;6.696;2023-03-13T06:38:56;12.60;99.90
65692;DHT22;52411;52.716;6.696;2023-03-13T06:41:22;12.60;99.90
65692;DHT22;52411;52.716;6.696;2023-03-13T06:43:48;12.70;99.90
65692;DHT22;52411;52.716;6.696;2023-03-13T06:46:19;12.60;99.90
65692;DHT22;52411;52.716;6.696;2023-03-13T06:48:46;12.70;99.90
65692;DHT22;52411;52.716;6.696;2023-03-13T06:51:13;12.60;99.90
65692;DHT22;52411;52.716;6.696;2023-03-13T06:53:39;12.70;99.90
65692;DHT22;52411;52.716;6.696;2023-03-13T06:56:05;12.70;99.90
65692;DHT22;52411;52.716;6.696;2023-03-13T06:58:31;12.70;99.90
65692;DHT22;52411;52.716;6.696;2023-03-13T07:00:57;12.70;99.90
65692;DHT22;52411;52.716;6.696;2023-03-13T07:03:23;12.70;99.90
65692;DHT22;52411;52.716;6.696;2023-03-13T07:05:55;12.80;99.90
65692;DHT22;52411;52.716;6.696;2023-03-13T07:08:20;12.90;99.90
65692;DHT22;52411;52.716;6.696;2023-03-13T07:10:46;12.90;99.90
65692;DHT22;52411;52.716;6.696;2023-03-13T07:13:15;12.90;99.90
65692;DHT22;52411;52.716;6.696;2023-03-13T07:15:40;12.90;99.90
65692;DHT22;52411;52.716;6.696;2023-03-13T07:18:06;12.90;99.90
65692;DHT22;52411;52.716;6.696;2023-03-13T07:20:31;13.00;99.90
65692;DHT22;52411;52.716;6.696;2023-03-13T07:22:58;13.00;99.90
65692;DHT22;52411;52.716;6.696;2023-03-13T07:25:23;13.00;99.90
65692;DHT22;52411;52.716;6.696;2023-03-13T07:27:50;13.00;99.90
65692;DHT22;52411;52.716;6.696;2023-03-13T07:30:18;13.00;99.90
65692;DHT22;52411;52.716;6.696;2023-03-13T07:32:43;13.10;99.90
65692;DHT22;52411;52.716;6.696;2023-03-13T07:35:09;13.10;99.90
65692;DHT22;52411;52.716;6.696;2023-03-13T07:37:34;13.10;99.90
65692;DHT22;52411;52.716;6.696;2023-03-13T07:40:00;13.10;99.90
65692;DHT22;52411;52.716;6.696;2023-03-13T07:42:26;13.20;99.90
65692;DHT22;52411;52.716;6.696;2023-03-13T07:44:52;13.20;99.90
65692;DHT22;52411;52.716;6.696;2023-03-13T07:47:18;13.20;99.90
65692;DHT22;52411;52.716;6.696;2023-03-13T07:49:43;13.20;99.90
65692;DHT22;52411;52.716;6.696;2023-03-13T07:52:11;13.20;99.90
65692;DHT22;52411;52.716;6.696;2023-03-13T07:54:36;13.20;99.90
65692;DHT22;52411;52.716;6.696;2023-03-13T07:57:02;13.20;99.90
65692;DHT22;52411;52.716;6.696;2023-03-13T07:59:28;13.30;99.90
65692;DHT22;52411;52.716;6.696;2023-03-13T08:01:53;13.30;99.90
65692;DHT22;52411;52.716;6.696;2023-03-13T08:04:19;13.30;99.90
65692;DHT22;52411;52.716;6.696;2023-03-13T08:06:44;13.30;99.90
65692;DHT22;52411;52.716;6.696;2023-03-13T08:09:10;13.30;99.90
65692;DHT22;52411;52.716;6.696;2023-03-13T08:11:38;13.30;99.90
65692;DHT22;52411;52.716;6.696;2023-03-13T08:14:05;13.20;99.90
65692;DHT22;52411;52.716;6.696;2023-03-13T08:16:32;13.10;99.90
65692;DHT22;52411;52.716;6.696;2023-03-13T08:19:00;13.10;99.90
65692;DHT22;52411;52.716;6.696;2023-03-13T08:21:30;13.10;99.90
65692;DHT22;52411;52.716;6.696;2023-03-13T08:23:58;13.10;99.90
65692;DHT22;52411;52.716;6.696;2023-03-13T08:26:26;13.00;99.90
65692;DHT22;52411;52.716;6.696;2023-03-13T08:28:55;13.00;99.90
65692;DHT22;52411;52.716;6.696;2023-03-13T08:31:23;13.00;99.90
65692;DHT22;52411;52.716;6.696;2023-03-13T08:33:49;13.00;99.90
65692;DHT22;52411;52.716;6.696;2023-03-13T08:36:26;13.20;99.90
65692;DHT22;52411;52.716;6.696;2023-03-13T08:38:54;13.20;99.90
65692;DHT22;52411;52.716;6.696;2023-03-13T08:41:24;13.20;99.90
65692;DHT22;52411;52.716;6.696;2023-03-13T08:43:54;13.20;99.90
65692;DHT22;52411;52.716;6.696;2023-03-13T08:46:21;13.30;99.90
65692;DHT22;52411;52.716;6.696;2023-03-13T08:48:51;13.40;99.90
65692;DHT22;52411;52.716;6.696;2023-03-13T08:51:18;13.50;99.90
65692;DHT22;52411;52.716;6.696;2023-03-13T08:53:44;13.50;99.90
65692;DHT22;52411;52.716;6.696;2023-03-13T08:56:12;13.50;99.90
65692;DHT22;52411;52.716;6.696;2023-03-13T08:58:37;13.60;99.90
65692;DHT22;52411;52.716;6.696;2023-03-13T09:01:05;13.70;99.90
65692;DHT22;52411;52.716;6.696;2023-03-13T09:03:31;13.90;99.90
65692;DHT22;52411;52.716;6.696;2023-03-13T09:05:58;14.00;99.90
65692;DHT22;52411;52.716;6.696;2023-03-13T09:08:24;14.10;99.90
65692;DHT22;52411;52.716;6.696;2023-03-13T09:10:57;14.30;99.90
65692;DHT22;52411;52.716;6.696;2023-03-13T09:13:24;14.50;99.90
65692;DHT22;52411;52.716;6.696;2023-03-13T09:15:57;14.40;99.90
65692;DHT22;52411;52.716;6.696;2023-03-13T09:18:24;14.40;99.90
65692;DHT22;52411;52.716;6.696;2023-03-13T09:20:50;14.40;99.90
65692;DHT22;52411;52.716;6.696;2023-03-13T09:23:16;14.30;99.90
65692;DHT22;52411;52.716;6.696;2023-03-13T09:25:42;14.20;99.90
65692;DHT22;52411;52.716;6.696;2023-03-13T09:28:07;14.20;99.90
65692;DHT22;52411;52.716;6.696;2023-03-13T09:30:33;14.20;99.90
65692;DHT22;52411;52.716;6.696;2023-03-13T09:32:58;14.10;99.90
65692;DHT22;52411;52.716;6.696;2023-03-13T09:35:24;14.00;99.90
65692;DHT22;52411;52.716;6.696;2023-03-13T09:37:49;14.00;99.90
65692;DHT22;52411;52.716;6.696;2023-03-13T09:40:18;14.00;99.90
65692;DHT22;52411;52.716;6.696;2023-03-13T09:42:49;14.00;99.90
65692;DHT22;52411;52.716;6.696;2023-03-13T09:45:39;14.00;99.90
65692;DHT22;52411;52.716;6.696;2023-03-13T09:51:03;13.90;99.90
65692;DHT22;52411;52.716;6.696;2023-03-13T09:53:37;13.90;99.90
65692;DHT22;52411;52.716;6.696;2023-03-13T09:56:12;13.80;99.90
65692;DHT22;52411;52.716;6.696;2023-03-13T09:58:48;13.90;99.90
65692;DHT22;52411;52.716;6.696;2023-03-13T10:01:16;14.00;99.90
65692;DHT22;52411;52.716;6.696;2023-03-13T10:04:01;14.10;99.90
65692;DHT22;52411;52.716;6.696;2023-03-13T10:06:34;14.10;99.90
65692;DHT22;52411;52.716;6.696;2023-03-13T10:09:00;14.30;99.90
65692;DHT22;52411;52.716;6.696;2023-03-13T10:11:36;14.40;99.90
65692;DHT22;52411;52.716;6.696;2023-03-13T10:14:14;14.50;99.90
65692;DHT22;52411;52.716;6.696;2023-03-13T10:17:25;14.50;99.90
65692;DHT22;52411;52.716;6.696;2023-03-13T10:19:57;14.40;99.90
65692;DHT22;52411;52.716;6.696;2023-03-13T10:22:26;14.60;99.90
65692;DHT22;52411;52.716;6.696;2023-03-13T10:24:58;14.70;99.90
65692;DHT22;52411;52.716;6.696;2023-03-13T10:27:24;14.70;99.90
65692;DHT22;52411;52.716;6.696;2023-03-13T10:29:50;14.70;99.90
65692;DHT22;52411;52.716;6.696;2023-03-13T10:32:16;14.70;99.90
65692;DHT22;52411;52.716;6.696;2023-03-13T10:37:19;14.70;99.90
65692;DHT22;52411;52.716;6.696;2023-03-13T10:39:44;14.70;99.90
65692;DHT22;52411;52.716;6.696;2023-03-13T10:42:21;14.70;99.90
65692;DHT22;52411;52.716;6.696;2023-03-13T10:44:48;14.80;99.90
65692;DHT22;52411;52.716;6.696;2023-03-13T10:47:14;14.80;99.90
65692;DHT22;52411;52.716;6.696;2023-03-13T10:49:51;14.80;99.90
65692;DHT22;52411;52.716;6.696;2023-03-13T10:55:21;14.80;99.90
65692;DHT22;52411;52.716;6.696;2023-03-13T10:57:58;14.90;99.90
65692;DHT22;52411;52.716;6.696;2023-03-13T11:00:36;14.90;99.90
65692;DHT22;52411;52.716;6.696;2023-03-13T11:05:42;15.00;99.90
65692;DHT22;52411;52.716;6.696;2023-03-13T11:08:26;15.10;99.90
65692;DHT22;52411;52.716;6.696;2023-03-13T11:10:57;15.30;99.90
65692;DHT22;52411;52.716;6.696;2023-03-13T11:13:35;15.40;99.90
65692;DHT22;52411;52.716;6.696;2023-03-13T11:32:47;16.40;99.90
65692;DHT22;52411;52.716;6.696;2023-03-13T11:35:28;16.40;99.90
65692;DHT22;52411;52.716;6.696;2023-03-13T11:37:56;16.50;99.90
65692;DHT22;52411;52.716;6.696;2023-03-13T11:40:30;16.70;99.90
65692;DHT22;52411;52.716;6.696;2023-03-13T11:50:38;16.50;99.90
65692;DHT22;52411;52.716;6.696;2023-03-13T11:56:05;16.50;99.90
65692;DHT22;52411;52.716;6.696;2023-03-13T11:58:59;16.40;99.90
65692;DHT22;52411;52.716;6.696;2023-03-13T12:01:42;16.60;99.90
65692;DHT22;52411;52.716;6.696;2023-03-13T12:06:46;16.60;99.90
65692;DHT22;52411;52.716;6.696;2023-03-13T12:09:30;16.70;99.90
65692;DHT22;52411;52.716;6.696;2023-03-13T12:18:40;16.90;99.90
65692;DHT22;52411;52.716;6.696;2023-03-13T12:21:27;16.90;99.90
65692;DHT22;52411;52.716;6.696;2023-03-13T12:24:20;16.70;99.90
65692;DHT22;52411;52.716;6.696;2023-03-13T12:30:48;17.10;99.90
65692;DHT22;52411;52.716;6.696;2023-03-13T12:33:28;17.00;99.90
65692;DHT22;52411;52.716;6.696;2023-03-13T12:36:07;17.00;99.90
65692;DHT22;52411;52.716;6.696;2023-03-13T12:41:43;17.10;99.90
65692;DHT22;52411;52.716;6.696;2023-03-13T12:44:18;17.20;99.90
65692;DHT22;52411;52.716;6.696;2023-03-13T12:46:58;17.20;99.90
65692;DHT22;52411;52.716;6.696;2023-03-13T12:52:44;17.30;99.90
65692;DHT22;52411;52.716;6.696;2023-03-13T12:55:27;17.20;99.90
65692;DHT22;52411;52.716;6.696;2023-03-13T12:58:28;17.10;99.90
65692;DHT22;52411;52.716;6.696;2023-03-13T13:00:56;17.20;99.90
65692;DHT22;52411;52.716;6.696;2023-03-13T13:03:35;17.40;99.90
65692;DHT22;52411;52.716;6.696;2023-03-13T13:06:10;17.30;99.90
65692;DHT22;52411;52.716;6.696;2023-03-13T13:08:39;17.40;99.90
65692;DHT22;52411;52.716;6.696;2023-03-13T13:16:41;17.20;99.90
65692;DHT22;52411;52.716;6.696;2023-03-13T13:24:57;16.90;99.90
65692;DHT22;52411;52.716;6.696;2023-03-13T13:30:00;16.80;99.90
65692;DHT22;52411;52.716;6.696;2023-03-13T13:32:42;16.70;99.90
65692;DHT22;52411;52.716;6.696;2023-03-13T13:37:38;17.00;99.90
65692;DHT22;52411;52.716;6.696;2023-03-13T13:40:19;16.90;99.90
65692;DHT22;52411;52.716;6.696;2023-03-13T13:42:49;17.00;99.90
65692;DHT22;52411;52.716;6.696;2023-03-13T13:47:44;17.00;99.90
65692;DHT22;52411;52.716;6.696;2023-03-13T13:50:19;16.90;99.90
65692;DHT22;52411;52.716;6.696;2023-03-13T13:52:46;17.00;99.90
65692;DHT22;52411;52.716;6.696;2023-03-13T13:58:11;17.10;99.90
65692;DHT22;52411;52.716;6.696;2023-03-13T14:00:43;16.90;99.90
65692;DHT22;52411;52.716;6.696;2023-03-13T14:05:51;16.90;99.90
65692;DHT22;52411;52.716;6.696;2023-03-13T14:08:44;17.10;99.90
65692;DHT22;52411;52.716;6.696;2023-03-13T14:14:16;17.20;99.70
65692;DHT22;52411;52.716;6.696;2023-03-13T14:19:37;17.30;98.20
65692;DHT22;52411;52.716;6.696;2023-03-13T14:22:06;17.30;98.90
65692;DHT22;52411;52.716;6.696;2023-03-13T14:24:32;17.40;99.10
65692;DHT22;52411;52.716;6.696;2023-03-13T14:26:57;17.40;99.70
65692;DHT22;52411;52.716;6.696;2023-03-13T14:29:23;17.30;99.60
65692;DHT22;52411;52.716;6.696;2023-03-13T14:31:54;17.40;98.30
65692;DHT22;52411;52.716;6.696;2023-03-13T14:34:20;17.30;98.50
65692;DHT22;52411;52.716;6.696;2023-03-13T14:36:48;17.30;99.00
65692;DHT22;52411;52.716;6.696;2023-03-13T14:42:01;17.10;99.90
65692;DHT22;52411;52.716;6.696;2023-03-13T14:44:30;16.90;99.90
65692;DHT22;52411;52.716;6.696;2023-03-13T14:46:58;16.90;99.90
65692;DHT22;52411;52.716;6.696;2023-03-13T14:49:26;16.70;99.90
65692;DHT22;52411;52.716;6.696;2023-03-13T14:52:04;17.00;99.90
65692;DHT22;52411;52.716;6.696;2023-03-13T14:54:32;17.00;99.90
65692;DHT22;52411;52.716;6.696;2023-03-13T14:57:19;17.20;97.00
65692;DHT22;52411;52.716;6.696;2023-03-13T14:59:47;17.30;98.90
65692;DHT22;52411;52.716;6.696;2023-03-13T15:04:57;17.10;98.10
65692;DHT22;52411;52.716;6.696;2023-03-13T15:07:51;17.10;99.10
65692;DHT22;52411;52.716;6.696;2023-03-13T15:12:44;16.80;98.80
65692;DHT22;52411;52.716;6.696;2023-03-13T15:15:10;16.70;98.10
65692;DHT22;52411;52.716;6.696;2023-03-13T15:17:35;16.40;98.40
65692;DHT22;52411;52.716;6.696;2023-03-13T15:20:02;16.60;99.10
65692;DHT22;52411;52.716;6.696;2023-03-13T15:22:35;16.70;99.30
65692;DHT22;52411;52.716;6.696;2023-03-13T15:25:03;16.70;98.30
65692;DHT22;52411;52.716;6.696;2023-03-13T15:27:28;16.60;96.70
65692;DHT22;52411;52.716;6.696;2023-03-13T15:29:54;16.60;97.10
65692;DHT22;52411;52.716;6.696;2023-03-13T15:32:32;16.50;96.20
65692;DHT22;52411;52.716;6.696;2023-03-13T15:34:59;16.60;97.10
65692;DHT22;52411;52.716;6.696;2023-03-13T15:37:28;16.80;97.60
65692;DHT22;52411;52.716;6.696;2023-03-13T15:39:54;16.90;96.50
65692;DHT22;52411;52.716;6.696;2023-03-13T15:42:21;16.80;97.40
65692;DHT22;52411;52.716;6.696;2023-03-13T15:44:47;16.70;98.00
65692;DHT22;52411;52.716;6.696;2023-03-13T15:47:18;16.70;98.20
65692;DHT22;52411;52.716;6.696;2023-03-13T15:49:45;16.70;98.10
65692;DHT22;52411;52.716;6.696;2023-03-13T15:52:15;16.60;97.70
65692;DHT22;52411;52.716;6.696;2023-03-13T15:54:46;16.70;97.00
65692;DHT22;52411;52.716;6.696;2023-03-13T15:57:14;16.60;96.70
65692;DHT22;52411;52.716;6.696;2023-03-13T15:59:41;16.40;97.10
65692;DHT22;52411;52.716;6.696;2023-03-13T16:02:21;16.60;97.50
65692;DHT22;52411;52.716;6.696;2023-03-13T16:04:47;16.70;97.50
65692;DHT22;52411;52.716;6.696;2023-03-13T16:07:15;16.60;97.90
65692;DHT22;52411;52.716;6.696;2023-03-13T16:09:42;16.80;98.50
65692;DHT22;52411;52.716;6.696;2023-03-13T16:12:10;16.70;98.30
65692;DHT22;52411;52.716;6.696;2023-03-13T16:14:36;16.50;98.70
65692;DHT22;52411;52.716;6.696;2023-03-13T16:17:02;16.60;99.20
65692;DHT22;52411;52.716;6.696;2023-03-13T16:19:34;16.50;98.60
65692;DHT22;52411;52.716;6.696;2023-03-13T16:22:00;16.30;98.70
65692;DHT22;52411;52.716;6.696;2023-03-13T16:24:25;16.40;99.00
65692;DHT22;52411;52.716;6.696;2023-03-13T16:26:51;16.50;99.10
65692;DHT22;52411;52.716;6.696;2023-03-13T16:29:17;16.50;99.70
65692;DHT22;52411;52.716;6.696;2023-03-13T16:31:43;16.60;99.90
65692;DHT22;52411;52.716;6.696;2023-03-13T16:34:08;16.60;99.50
65692;DHT22;52411;52.716;6.696;2023-03-13T16:36:34;16.50;99.50
65692;DHT22;52411;52.716;6.696;2023-03-13T16:39:17;16.50;99.40
65692;DHT22;52411;52.716;6.696;2023-03-13T16:41:43;16.40;99.80
65692;DHT22;52411;52.716;6.696;2023-03-13T16:44:09;16.40;99.80
65692;DHT22;52411;52.716;6.696;2023-03-13T16:46:37;16.40;99.90
65692;DHT22;52411;52.716;6.696;2023-03-13T16:49:03;16.30;99.70
65692;DHT22;52411;52.716;6.696;2023-03-13T16:51:29;16.20;99.90
65692;DHT22;52411;52.716;6.696;2023-03-13T16:53:56;16.10;99.90
65692;DHT22;52411;52.716;6.696;2023-03-13T16:58:50;15.90;99.90
65692;DHT22;52411;52.716;6.696;2023-03-13T17:01:16;15.80;99.90
65692;DHT22;52411;52.716;6.696;2023-03-13T17:03:42;15.60;99.90
65692;DHT22;52411;52.716;6.696;2023-03-13T17:06:28;15.50;99.90
65692;DHT22;52411;52.716;6.696;2023-03-13T17:08:56;15.30;99.90
65692;DHT22;52411;52.716;6.696;2023-03-13T17:11:23;15.10;99.90
65692;DHT22;52411;52.716;6.696;2023-03-13T17:13:50;14.90;99.90
65692;DHT22;52411;52.716;6.696;2023-03-13T17:18:45;14.60;99.90
65692;DHT22;52411;52.716;6.696;2023-03-13T17:21:19;14.40;99.90
65692;DHT22;52411;52.716;6.696;2023-03-13T17:23:45;14.20;99.90
65692;DHT22;52411;52.716;6.696;2023-03-13T17:26:20;14.00;99.90
65692;DHT22;52411;52.716;6.696;2023-03-13T17:28:47;13.90;99.90